Check out our new BloomSky Weather System.

Active alerts

Fort Bend, TX
  Details for Fort Bend, TX River Flood Warning  +1 additional alert
Houston, TX
  Details for Houston, TX Wind Advisory
Galveston, TX
  Details for Galveston, TX Wind Advisory


Thunder radar  blitzortung!


Rain radar more information rain snow radar


Visit our other weather sites:

Template documentation
and downloads

And another site



Weather Underground History page Text

Daily Summary for June 30, 2017 Units:  English    Metric   Both
« Previous Day
Next Day »
Daily Weekly Monthly Yearly Custom
  High: Low: Average:
Temperature: TemperatureF °F 80.8 °F 86.5 °F
Dew Point: DewpointF °F 76.8 °F 78.4 °F
Humidity: Humidity % 59 % 78 %
Wind Speed: WindSpeedMPH mph 0.0 mph 5.7 mph
Wind Gust: WindSpeedGustMPH mph - -
Wind:- - SSE
Pressure: PressureIn in 29.88 in -
Precipitation: 0.00 in    
Historical Graphs
 
 
Tabular Data for June 30, 2017
Time Temperature Dew Point Pressure Wind Wind Speed Wind Gust Humidity Rainfall Rate (Hourly)
TemperatureF °F DewpointF °F PressureIn in Calm     Humidity % HourlyPrecipIn in
00:04 82.0 °F 78.1 °F 29.89 in SSE 5.0 mph 12.0 mph 88 % 0.00 in
00:09 82.0 °F 78.1 °F 29.89 in SE 2.0 mph 12.0 mph 88 % 0.00 in
00:14 82.0 °F 78.4 °F 29.89 in ESE 2.0 mph 12.0 mph 89 % 0.00 in
00:19 82.0 °F 78.4 °F 29.89 in South 4.0 mph 11.0 mph 89 % 0.00 in
00:24 82.0 °F 78.4 °F 29.89 in SSW 5.0 mph 11.0 mph 89 % 0.00 in
00:29 82.0 °F 78.4 °F 29.89 in SE 6.0 mph 11.0 mph 89 % 0.00 in
00:34 82.0 °F 78.4 °F 29.89 in SW 9.0 mph 13.0 mph 89 % 0.00 in
00:39 82.0 °F 78.4 °F 29.89 in SSE 4.0 mph 13.0 mph 89 % 0.00 in
00:40 82.0 °F 78.4 °F 29.89 in South 5.0 mph 13.0 mph 89 % 0.00 in
00:45 82.0 °F 78.4 °F 29.89 in SSW 5.0 mph 13.0 mph 89 % 0.00 in
00:50 82.0 °F 78.4 °F 29.90 in SE 5.0 mph 12.0 mph 89 % 0.00 in
00:55 82.0 °F 78.4 °F 29.90 in South 6.0 mph 13.0 mph 89 % 0.00 in
01:00 82.0 °F 78.4 °F 29.90 in SSE 6.0 mph 13.0 mph 89 % 0.00 in
01:05 81.9 °F 78.3 °F 29.90 in SE 6.0 mph 13.0 mph 89 % 0.00 in
01:10 81.9 °F 78.3 °F 29.90 in SE 6.0 mph 13.0 mph 89 % 0.00 in
01:15 81.9 °F 78.3 °F 29.90 in South 4.0 mph 9.0 mph 89 % 0.00 in
01:20 81.9 °F 78.3 °F 29.90 in South 7.0 mph 10.0 mph 89 % 0.00 in
01:25 81.9 °F 78.3 °F 29.90 in South 3.0 mph 11.0 mph 89 % 0.00 in
01:30 81.7 °F 78.1 °F 29.90 in SSE 7.0 mph 11.0 mph 89 % 0.00 in
01:35 81.7 °F 78.1 °F 29.90 in SE 2.0 mph 11.0 mph 89 % 0.00 in
01:40 81.7 °F 78.1 °F 29.90 in SSE 5.0 mph 11.0 mph 89 % 0.00 in
01:45 81.7 °F 78.4 °F 29.90 in SSW 4.0 mph 11.0 mph 90 % 0.00 in
01:50 81.7 °F 78.4 °F 29.90 in SSE 4.0 mph 10.0 mph 90 % 0.00 in
01:55 81.7 °F 78.1 °F 29.90 in SSW 5.0 mph 14.0 mph 89 % 0.00 in
02:00 81.7 °F 78.4 °F 29.90 in South 6.0 mph 14.0 mph 90 % 0.00 in
02:05 81.7 °F 78.4 °F 29.90 in SE 6.0 mph 14.0 mph 90 % 0.00 in
02:10 81.7 °F 78.4 °F 29.90 in SSE 5.0 mph 11.0 mph 90 % 0.00 in
02:15 81.7 °F 78.4 °F 29.90 in SSE 9.0 mph 11.0 mph 90 % 0.00 in
02:20 81.7 °F 78.4 °F 29.90 in SE 3.0 mph 11.0 mph 90 % 0.00 in
02:25 81.7 °F 78.4 °F 29.90 in SSE 6.0 mph 11.0 mph 90 % 0.00 in
02:30 81.7 °F 78.4 °F 29.90 in SSE 8.0 mph 10.0 mph 90 % 0.00 in
02:35 81.7 °F 78.4 °F 29.90 in SE 5.0 mph 10.0 mph 90 % 0.00 in
02:40 81.7 °F 78.4 °F 29.90 in ESE 6.0 mph 11.0 mph 90 % 0.00 in
02:45 81.7 °F 78.4 °F 29.90 in SW 3.0 mph 11.0 mph 90 % 0.00 in
02:50 81.7 °F 78.4 °F 29.89 in SSE 5.0 mph 13.0 mph 90 % 0.00 in
02:55 81.7 °F 78.4 °F 29.89 in ESE 5.0 mph 13.0 mph 90 % 0.00 in
02:57 81.7 °F 78.4 °F 29.89 in South 3.0 mph 13.0 mph 90 % 0.00 in
03:02 81.7 °F 78.4 °F 29.89 in SE 9.0 mph 13.0 mph 90 % 0.00 in
03:07 81.7 °F 78.4 °F 29.89 in South 6.0 mph 12.0 mph 90 % 0.00 in
03:12 81.7 °F 78.4 °F 29.89 in South 7.0 mph 13.0 mph 90 % 0.00 in
03:17 81.7 °F 78.4 °F 29.89 in SSE 5.0 mph 13.0 mph 90 % 0.00 in
03:18 81.7 °F 78.4 °F 29.89 in SSE 4.0 mph 13.0 mph 90 % 0.00 in
03:23 81.7 °F 78.4 °F 29.89 in South 4.0 mph 13.0 mph 90 % 0.00 in
03:28 81.5 °F 78.3 °F 29.89 in SE 4.0 mph 11.0 mph 90 % 0.00 in
03:33 81.5 °F 78.6 °F 29.89 in SSE 5.0 mph 11.0 mph 91 % 0.00 in
03:38 81.3 °F 78.4 °F 29.89 in SSW 7.0 mph 11.0 mph 91 % 0.00 in
03:44 81.3 °F 78.4 °F 29.88 in SE 3.0 mph 11.0 mph 91 % 0.00 in
03:49 81.5 °F 78.6 °F 29.88 in SSE 5.0 mph 11.0 mph 91 % 0.00 in
03:54 81.3 °F 78.4 °F 29.88 in SSE 7.0 mph 13.0 mph 91 % 0.00 in
04:58 81.0 °F 78.4 °F 29.88 in South 6.0 mph 10.0 mph 92 % 0.00 in
05:03 81.0 °F 78.4 °F 29.88 in South 6.0 mph 10.0 mph 92 % 0.00 in
05:08 80.8 °F 78.3 °F 29.88 in SSE 3.0 mph 10.0 mph 92 % 0.00 in
05:10 80.8 °F 78.6 °F 29.88 in SSE 5.0 mph 10.0 mph 93 % 0.00 in
05:15 80.8 °F 78.6 °F 29.88 in SSW 4.0 mph 10.0 mph 93 % 0.00 in
05:20 80.8 °F 78.6 °F 29.88 in South 6.0 mph 10.0 mph 93 % 0.00 in
05:25 80.8 °F 78.6 °F 29.89 in SW 4.0 mph 10.0 mph 93 % 0.00 in
05:30 80.8 °F 78.6 °F 29.89 in SSW 3.0 mph 10.0 mph 93 % 0.00 in
05:35 80.8 °F 78.6 °F 29.89 in South 6.0 mph 10.0 mph 93 % 0.00 in
05:40 80.8 °F 78.6 °F 29.89 in SSE 2.0 mph 10.0 mph 93 % 0.00 in
05:45 80.8 °F 78.6 °F 29.89 in SSE 3.0 mph 10.0 mph 93 % 0.00 in
05:50 80.8 °F 78.6 °F 29.90 in SE 3.0 mph 8.0 mph 93 % 0.00 in
05:55 80.8 °F 78.6 °F 29.90 in South 3.0 mph 9.0 mph 93 % 0.00 in
06:58 80.8 °F 78.8 °F 29.92 in Calm   5.0 mph 94 % 0.00 in
07:03 80.8 °F 78.8 °F 29.92 in SE 3.0 mph 6.0 mph 94 % 0.00 in
07:08 80.8 °F 78.6 °F 29.92 in SE 3.0 mph 6.0 mph 93 % 0.00 in
07:13 80.8 °F 78.6 °F 29.92 in SSE 4.0 mph 7.0 mph 93 % 0.00 in
07:18 81.0 °F 78.8 °F 29.92 in SSE 4.0 mph 8.0 mph 93 % 0.00 in
07:23 81.0 °F 78.8 °F 29.92 in South 5.0 mph 8.0 mph 93 % 0.00 in
07:28 81.0 °F 78.8 °F 29.92 in SSW 4.0 mph 8.0 mph 93 % 0.00 in
07:33 81.1 °F 79.0 °F 29.93 in SSE 1.0 mph 8.0 mph 93 % 0.00 in
07:38 81.1 °F 79.0 °F 29.93 in SSE 4.0 mph 8.0 mph 93 % 0.00 in
07:39 81.1 °F 79.0 °F 29.93 in South 2.0 mph 8.0 mph 93 % 0.00 in
07:44 81.1 °F 79.0 °F 29.93 in SE 5.0 mph 6.0 mph 93 % 0.00 in
07:49 81.1 °F 79.0 °F 29.93 in South 5.0 mph 8.0 mph 93 % 0.00 in
07:54 81.1 °F 79.0 °F 29.94 in SSW 2.0 mph 8.0 mph 93 % 0.00 in
07:59 81.3 °F 79.2 °F 29.94 in SSW 2.0 mph 8.0 mph 93 % 0.00 in
08:04 81.3 °F 78.8 °F 29.94 in South 3.0 mph 7.0 mph 92 % 0.00 in
08:09 81.7 °F 79.5 °F 29.94 in South 3.0 mph 6.0 mph 93 % 0.00 in
08:14 81.9 °F 79.3 °F 29.95 in SSE 2.0 mph 6.0 mph 92 % 0.00 in
08:19 82.0 °F 79.2 °F 29.95 in SE 4.0 mph 6.0 mph 91 % 0.00 in
08:24 82.2 °F 79.3 °F 29.95 in South 6.0 mph 6.0 mph 91 % 0.00 in
08:29 82.2 °F 79.3 °F 29.95 in SSE 2.0 mph 10.0 mph 91 % 0.00 in
08:34 82.6 °F 79.7 °F 29.95 in South 6.0 mph 10.0 mph 91 % 0.00 in
08:39 82.8 °F 79.5 °F 29.95 in SSW 7.0 mph 10.0 mph 90 % 0.00 in
08:44 83.3 °F 79.3 °F 29.95 in South 4.0 mph 10.0 mph 88 % 0.00 in
08:49 83.5 °F 79.5 °F 29.95 in SE 3.0 mph 10.0 mph 88 % 0.00 in
08:54 83.7 °F 79.3 °F 29.95 in SE 8.0 mph 10.0 mph 87 % 0.00 in
08:59 83.7 °F 79.7 °F 29.95 in SSE 5.0 mph 10.0 mph 88 % 0.00 in
09:04 84.0 °F 79.7 °F 29.95 in SSW 6.0 mph 10.0 mph 87 % 0.00 in
09:09 84.6 °F 79.9 °F 29.95 in SE 7.0 mph 9.0 mph 86 % 0.00 in
09:14 84.9 °F 79.9 °F 29.95 in SSW 6.0 mph 8.0 mph 85 % 0.00 in
09:19 85.5 °F 80.4 °F 29.95 in ENE 6.0 mph 8.0 mph 85 % 0.00 in
09:24 86.4 °F 80.2 °F 29.95 in South 4.0 mph 9.0 mph 82 % 0.00 in
09:29 86.7 °F 79.9 °F 29.95 in SSW 4.0 mph 12.0 mph 80 % 0.00 in
09:34 86.7 °F 79.9 °F 29.95 in SSW 4.0 mph 12.0 mph 80 % 0.00 in
09:39 87.3 °F 79.5 °F 29.94 in SE 7.0 mph 12.0 mph 78 % 0.00 in
09:44 87.6 °F 79.5 °F 29.95 in South 8.0 mph 12.0 mph 77 % 0.00 in
09:49 87.8 °F 79.3 °F 29.95 in SE 5.0 mph 12.0 mph 76 % 0.00 in
09:54 88.0 °F 79.0 °F 29.95 in South 8.0 mph 12.0 mph 75 % 0.00 in
09:59 88.2 °F 80.1 °F 29.95 in SSW 6.0 mph 13.0 mph 77 % 0.00 in
10:04 87.6 °F 78.3 °F 29.95 in South 2.0 mph 13.0 mph 74 % 0.00 in
10:09 87.4 °F 79.0 °F 29.95 in South 2.0 mph 13.0 mph 76 % 0.00 in
10:14 87.6 °F 79.5 °F 29.95 in SSE 4.0 mph 10.0 mph 77 % 0.00 in
10:19 87.4 °F 79.3 °F 29.95 in South 4.0 mph 10.0 mph 77 % 0.00 in
10:24 87.6 °F 79.2 °F 29.95 in SE 9.0 mph 9.0 mph 76 % 0.00 in
10:29 88.2 °F 79.7 °F 29.95 in South 3.0 mph 11.0 mph 76 % 0.00 in
10:34 88.3 °F 79.3 °F 29.95 in SSW 2.0 mph 11.0 mph 75 % 0.00 in
10:39 88.3 °F 79.3 °F 29.95 in South 10.0 mph 11.0 mph 75 % 0.00 in
10:44 88.3 °F 79.9 °F 29.95 in SSE 6.0 mph 11.0 mph 76 % 0.00 in
10:49 89.1 °F 80.1 °F 29.94 in SSE 6.0 mph 11.0 mph 75 % 0.00 in
10:54 89.4 °F 79.7 °F 29.94 in SSE 5.0 mph 11.0 mph 73 % 0.00 in
10:59 89.8 °F 79.5 °F 29.94 in South 3.0 mph 13.0 mph 72 % 0.00 in
11:04 90.3 °F 79.7 °F 29.94 in SE 4.0 mph 13.0 mph 71 % 0.00 in
11:09 90.3 °F 79.2 °F 29.94 in South 7.0 mph 13.0 mph 70 % 0.00 in
11:14 90.3 °F 78.8 °F 29.94 in SE 6.0 mph 12.0 mph 69 % 0.00 in
11:19 90.7 °F 80.1 °F 29.94 in South 7.0 mph 20.0 mph 71 % 0.00 in
11:24 90.9 °F 79.3 °F 29.94 in South 5.0 mph 20.0 mph 69 % 0.00 in
11:29 90.9 °F 79.7 °F 29.94 in South 6.0 mph 20.0 mph 70 % 0.00 in
11:34 90.7 °F 80.1 °F 29.94 in ESE 8.0 mph 16.0 mph 71 % 0.00 in
11:39 90.7 °F 79.5 °F 29.94 in SSE 8.0 mph 16.0 mph 70 % 0.00 in
11:44 90.9 °F 81.0 °F 29.94 in SSE 5.0 mph 14.0 mph 73 % 0.00 in
11:49 90.7 °F 80.1 °F 29.95 in SSW 5.0 mph 14.0 mph 71 % 0.00 in
11:54 90.3 °F 78.3 °F 29.95 in SE 6.0 mph 14.0 mph 68 % 0.00 in
11:59 90.7 °F 79.2 °F 29.94 in SE 8.0 mph 15.0 mph 69 % 0.00 in
12:04 90.9 °F 78.8 °F 29.94 in SSW 8.0 mph 15.0 mph 68 % 0.00 in
12:09 91.0 °F 78.6 °F 29.94 in South 10.0 mph 15.0 mph 67 % 0.00 in
12:14 90.9 °F 78.8 °F 29.94 in South 9.0 mph 15.0 mph 68 % 0.00 in
12:19 90.9 °F 78.8 °F 29.94 in SSE 5.0 mph 15.0 mph 68 % 0.00 in
12:21 90.9 °F 78.4 °F 29.94 in East 12.0 mph 15.0 mph 67 % 0.00 in
12:26 91.0 °F 78.6 °F 29.94 in ESE 11.0 mph 14.0 mph 67 % 0.00 in
12:31 91.6 °F 79.0 °F 29.94 in SW 7.0 mph 14.0 mph 67 % 0.00 in
12:36 91.6 °F 79.0 °F 29.94 in SSW 5.0 mph 14.0 mph 67 % 0.00 in
12:41 91.6 °F 78.6 °F 29.94 in South 4.0 mph 14.0 mph 66 % 0.00 in
12:46 91.4 °F 78.4 °F 29.94 in SE 8.0 mph 14.0 mph 66 % 0.00 in
12:51 90.9 °F 77.9 °F 29.94 in SSE 5.0 mph 14.0 mph 66 % 0.00 in
12:56 91.2 °F 79.2 °F 29.94 in SSE 7.0 mph 14.0 mph 68 % 0.00 in
13:01 91.8 °F 78.8 °F 29.94 in South 7.0 mph 16.0 mph 66 % 0.00 in
13:06 92.1 °F 78.3 °F 29.94 in SE 9.0 mph 16.0 mph 64 % 0.00 in
13:11 91.9 °F 78.1 °F 29.94 in SE 6.0 mph 16.0 mph 64 % 0.00 in
13:16 91.9 °F 78.1 °F 29.94 in SSE 5.0 mph 14.0 mph 64 % 0.00 in
13:21 92.1 °F 77.7 °F 29.93 in SSW 7.0 mph 14.0 mph 63 % 0.00 in
13:26 92.8 °F 77.9 °F 29.94 in SSW 12.0 mph 14.0 mph 62 % 0.00 in
13:31 93.0 °F 78.6 °F 29.93 in SE 5.0 mph 12.0 mph 63 % 0.00 in
13:36 93.7 °F 77.7 °F 29.93 in South 9.0 mph 12.0 mph 60 % 0.00 in
13:41 93.0 °F 78.6 °F 29.94 in SSE 7.0 mph 14.0 mph 63 % 0.00 in
13:46 93.4 °F 77.9 °F 29.93 in South 8.0 mph 14.0 mph 61 % 0.00 in
13:51 93.4 °F 78.4 °F 29.93 in SE 11.0 mph 14.0 mph 62 % 0.00 in
13:56 93.4 °F 78.8 °F 29.93 in SSW 7.0 mph 15.0 mph 63 % 0.00 in
14:01 93.0 °F 78.1 °F 29.94 in South 5.0 mph 15.0 mph 62 % 0.00 in
14:06 93.2 °F 78.3 °F 29.94 in ESE 2.0 mph 15.0 mph 62 % 0.00 in
14:11 93.6 °F 77.0 °F 29.93 in SSE 2.0 mph 13.0 mph 59 % 0.00 in
14:16 93.4 °F 76.8 °F 29.93 in SE 9.0 mph 13.0 mph 59 % 0.00 in
14:21 93.6 °F 78.1 °F 29.93 in SSE 6.0 mph 13.0 mph 61 % 0.00 in
14:26 93.4 °F 78.4 °F 29.93 in ENE 10.0 mph 13.0 mph 62 % 0.00 in
14:31 93.0 °F 78.1 °F 29.92 in SSE 11.0 mph 15.0 mph 62 % 0.00 in
14:36 92.5 °F 78.1 °F 29.92 in SE 6.0 mph 17.0 mph 63 % 0.00 in
14:41 92.8 °F 77.9 °F 29.93 in SSE 10.0 mph 17.0 mph 62 % 0.00 in
14:46 92.8 °F 77.9 °F 29.92 in ESE 11.0 mph 17.0 mph 62 % 0.00 in
14:50 92.8 °F 77.9 °F 29.92 in SE 5.0 mph 15.0 mph 62 % 0.00 in
14:55 93.0 °F 78.6 °F 29.92 in SSW 7.0 mph 15.0 mph 63 % 0.00 in
15:00 93.0 °F 78.1 °F 29.92 in ESE 11.0 mph 14.0 mph 62 % 0.00 in
15:05 92.7 °F 78.3 °F 29.92 in SSE 8.0 mph 14.0 mph 63 % 0.00 in
15:06 92.7 °F 78.3 °F 29.92 in SSE 7.0 mph 14.0 mph 63 % 0.00 in
15:11 93.0 °F 78.1 °F 29.92 in SSW 4.0 mph 14.0 mph 62 % 0.00 in
15:16 92.8 °F 76.8 °F 29.92 in SSE 6.0 mph 13.0 mph 60 % 0.00 in
15:21 92.7 °F 77.7 °F 29.92 in SE 8.0 mph 12.0 mph 62 % 0.00 in
15:26 92.8 °F 78.4 °F 29.92 in East 6.0 mph 15.0 mph 63 % 0.00 in
15:31 93.0 °F 77.0 °F 29.92 in SE 6.0 mph 15.0 mph 60 % 0.00 in
15:36 93.7 °F 79.2 °F 29.92 in SSE 7.0 mph 15.0 mph 63 % 0.00 in
15:41 93.9 °F 77.4 °F 29.92 in SSE 9.0 mph 14.0 mph 59 % 0.00 in
15:46 93.9 °F 77.9 °F 29.91 in SSE 7.0 mph 14.0 mph 60 % 0.00 in
15:51 94.3 °F 77.7 °F 29.91 in SE 5.0 mph 12.0 mph 59 % 0.00 in
15:56 93.7 °F 77.7 °F 29.91 in SE 7.0 mph 11.0 mph 60 % 0.00 in
16:01 93.4 °F 78.4 °F 29.91 in ESE 11.0 mph 13.0 mph 62 % 0.00 in
16:06 93.2 °F 77.7 °F 29.91 in SSE 6.0 mph 14.0 mph 61 % 0.00 in
16:11 93.4 °F 77.9 °F 29.91 in SSW 8.0 mph 14.0 mph 61 % 0.00 in
16:16 93.4 °F 77.9 °F 29.91 in South 5.0 mph 14.0 mph 61 % 0.00 in
16:21 92.5 °F 77.5 °F 29.91 in ESE 5.0 mph 16.0 mph 62 % 0.00 in
16:26 92.5 °F 77.5 °F 29.91 in SSW 8.0 mph 16.0 mph 62 % 0.00 in
16:31 92.8 °F 77.9 °F 29.91 in SSW 5.0 mph 16.0 mph 62 % 0.00 in
16:36 93.0 °F 78.1 °F 29.91 in SSE 7.0 mph 12.0 mph 62 % 0.00 in
16:41 92.8 °F 77.9 °F 29.91 in SE 4.0 mph 14.0 mph 62 % 0.00 in
16:46 92.7 °F 77.7 °F 29.91 in SSE 6.0 mph 14.0 mph 62 % 0.00 in
16:51 92.5 °F 77.5 °F 29.91 in SSW 6.0 mph 14.0 mph 62 % 0.00 in
16:56 92.3 °F 76.8 °F 29.91 in ESE 8.0 mph 14.0 mph 61 % 0.00 in
17:01 92.5 °F 77.0 °F 29.91 in SE 5.0 mph 11.0 mph 61 % 0.00 in
17:06 92.5 °F 77.5 °F 29.92 in SSW 4.0 mph 11.0 mph 62 % 0.00 in
17:11 91.9 °F 77.5 °F 29.92 in SSE 4.0 mph 11.0 mph 63 % 0.00 in
17:16 91.4 °F 77.5 °F 29.91 in SSW 5.0 mph 10.0 mph 64 % 0.00 in
17:21 91.2 °F 77.7 °F 29.91 in SE 7.0 mph 13.0 mph 65 % 0.00 in
17:26 90.9 °F 77.5 °F 29.91 in South 6.0 mph 13.0 mph 65 % 0.00 in
17:31 91.0 °F 78.1 °F 29.91 in SE 8.0 mph 13.0 mph 66 % 0.00 in
17:36 91.2 °F 77.7 °F 29.91 in SW 5.0 mph 11.0 mph 65 % 0.00 in
17:41 90.9 °F 77.9 °F 29.91 in South 7.0 mph 11.0 mph 66 % 0.00 in
17:42 90.9 °F 77.9 °F 29.91 in South 10.0 mph 11.0 mph 66 % 0.00 in
17:47 90.5 °F 78.1 °F 29.91 in SSE 6.0 mph 15.0 mph 67 % 0.00 in
17:52 90.5 °F 78.4 °F 29.91 in SSE 5.0 mph 15.0 mph 68 % 0.00 in
17:57 90.7 °F 78.3 °F 29.91 in SSW 4.0 mph 15.0 mph 67 % 0.00 in
18:02 91.6 °F 78.6 °F 29.91 in SSE 5.0 mph 12.0 mph 66 % 0.00 in
18:07 91.9 °F 78.1 °F 29.91 in ESE 5.0 mph 11.0 mph 64 % 0.00 in
18:12 91.9 °F 78.4 °F 29.91 in SE 9.0 mph 11.0 mph 65 % 0.00 in
18:17 91.8 °F 78.8 °F 29.91 in South 5.0 mph 12.0 mph 66 % 0.00 in
18:22 91.9 °F 79.0 °F 29.91 in SSE 4.0 mph 12.0 mph 66 % 0.00 in
18:27 91.8 °F 78.8 °F 29.91 in SSE 8.0 mph 12.0 mph 66 % 0.00 in
18:32 91.6 °F 79.0 °F 29.91 in SE 10.0 mph 12.0 mph 67 % 0.00 in
18:37 91.0 °F 79.5 °F 29.91 in ESE 6.0 mph 14.0 mph 69 % 0.00 in
18:42 90.9 °F 79.3 °F 29.91 in SE 8.0 mph 14.0 mph 69 % 0.00 in
18:47 90.1 °F 79.0 °F 29.91 in SE 7.0 mph 14.0 mph 70 % 0.00 in
18:52 90.0 °F 78.8 °F 29.92 in SSE 6.0 mph 15.0 mph 70 % 0.00 in
18:57 89.6 °F 78.4 °F 29.92 in SSE 6.0 mph 15.0 mph 70 % 0.00 in
19:02 89.4 °F 78.8 °F 29.92 in ESE 10.0 mph 15.0 mph 71 % 0.00 in
19:07 89.4 °F 78.8 °F 29.92 in SSE 4.0 mph 14.0 mph 71 % 0.00 in
19:12 89.4 °F 78.8 °F 29.91 in ESE 8.0 mph 13.0 mph 71 % 0.00 in
19:17 89.4 °F 79.2 °F 29.92 in East 7.0 mph 12.0 mph 72 % 0.00 in
19:22 89.2 °F 79.0 °F 29.92 in SE 6.0 mph 13.0 mph 72 % 0.00 in
19:27 89.1 °F 78.8 °F 29.91 in SE 5.0 mph 14.0 mph 72 % 0.00 in
19:32 88.9 °F 79.2 °F 29.91 in SW 4.0 mph 14.0 mph 73 % 0.00 in
19:37 88.5 °F 78.8 °F 29.91 in SSE 7.0 mph 14.0 mph 73 % 0.00 in
19:42 88.3 °F 79.0 °F 29.91 in South 7.0 mph 13.0 mph 74 % 0.00 in
19:47 88.3 °F 79.0 °F 29.92 in South 5.0 mph 14.0 mph 74 % 0.00 in
19:52 88.2 °F 78.8 °F 29.91 in SE 10.0 mph 14.0 mph 74 % 0.00 in
19:57 88.0 °F 79.0 °F 29.91 in South 4.0 mph 14.0 mph 75 % 0.00 in
20:02 87.6 °F 78.6 °F 29.92 in SSE 6.0 mph 13.0 mph 75 % 0.00 in
20:07 87.4 °F 78.6 °F 29.91 in SSW 12.0 mph 13.0 mph 75 % 0.00 in
20:12 87.3 °F 78.8 °F 29.91 in SSE 8.0 mph 13.0 mph 76 % 0.00 in
20:17 87.1 °F 78.6 °F 29.91 in South 8.0 mph 13.0 mph 76 % 0.00 in
20:22 86.7 °F 78.6 °F 29.91 in SSE 3.0 mph 12.0 mph 77 % 0.00 in
20:28 86.5 °F 78.4 °F 29.91 in ESE 6.0 mph 12.0 mph 77 % 0.00 in
20:33 86.4 °F 78.6 °F 29.91 in SSE 5.0 mph 12.0 mph 78 % 0.00 in
20:38 86.4 °F 78.6 °F 29.91 in ESE 5.0 mph 12.0 mph 78 % 0.00 in
20:43 86.2 °F 78.4 °F 29.91 in SSE 6.0 mph 12.0 mph 78 % 0.00 in
20:48 85.8 °F 78.6 °F 29.90 in SSE 7.0 mph 12.0 mph 79 % 0.00 in
20:53 85.6 °F 78.4 °F 29.90 in SSE 7.0 mph 15.0 mph 79 % 0.00 in
20:58 85.6 °F 78.8 °F 29.90 in SSE 6.0 mph 15.0 mph 80 % 0.00 in
21:03 85.6 °F 78.8 °F 29.91 in SE 5.0 mph 15.0 mph 80 % 0.00 in
21:08 85.5 °F 78.6 °F 29.91 in South 4.0 mph 13.0 mph 80 % 0.00 in
21:13 85.3 °F 78.4 °F 29.91 in SSE 7.0 mph 11.0 mph 80 % 0.00 in
21:18 85.3 °F 78.8 °F 29.90 in SE 9.0 mph 15.0 mph 81 % 0.00 in
21:23 85.1 °F 78.6 °F 29.91 in SSE 4.0 mph 15.0 mph 81 % 0.00 in
21:28 84.9 °F 78.4 °F 29.91 in South 11.0 mph 15.0 mph 81 % 0.00 in
21:33 84.9 °F 78.8 °F 29.91 in SE 7.0 mph 13.0 mph 82 % 0.00 in
21:38 84.7 °F 78.6 °F 29.91 in SE 11.0 mph 13.0 mph 82 % 0.00 in
21:43 84.7 °F 78.6 °F 29.91 in SSW 5.0 mph 13.0 mph 82 % 0.00 in
21:48 84.7 °F 78.6 °F 29.91 in ESE 11.0 mph 12.0 mph 82 % 0.00 in
21:53 84.6 °F 78.8 °F 29.91 in ESE 4.0 mph 12.0 mph 83 % 0.00 in
21:58 84.4 °F 78.6 °F 29.91 in ESE 3.0 mph 11.0 mph 83 % 0.00 in
22:03 84.4 °F 79.0 °F 29.92 in SE 6.0 mph 11.0 mph 84 % 0.00 in
22:04 84.4 °F 79.0 °F 29.92 in SSE 5.0 mph 11.0 mph 84 % 0.00 in
22:09 84.2 °F 78.8 °F 29.92 in SSW 5.0 mph 10.0 mph 84 % 0.00 in
22:14 84.0 °F 79.0 °F 29.92 in SSE 3.0 mph 11.0 mph 85 % 0.00 in
22:19 84.0 °F 79.0 °F 29.93 in East 6.0 mph 13.0 mph 85 % 0.00 in
22:24 84.0 °F 79.0 °F 29.93 in South 8.0 mph 15.0 mph 85 % 0.00 in
22:29 83.8 °F 78.8 °F 29.93 in SSE 5.0 mph 15.0 mph 85 % 0.00 in
22:34 83.8 °F 78.8 °F 29.93 in SSW 4.0 mph 15.0 mph 85 % 0.00 in
22:39 83.7 °F 79.0 °F 29.94 in SSE 6.0 mph 13.0 mph 86 % 0.00 in
22:44 83.7 °F 79.0 °F 29.94 in SE 3.0 mph 13.0 mph 86 % 0.00 in
22:49 83.7 °F 79.0 °F 29.94 in SSE 4.0 mph 13.0 mph 86 % 0.00 in
22:54 83.7 °F 79.0 °F 29.95 in South 5.0 mph 13.0 mph 86 % 0.00 in
22:59 83.7 °F 79.0 °F 29.96 in SE 2.0 mph 9.0 mph 86 % 0.00 in
23:04 83.7 °F 79.0 °F 29.96 in SSE 3.0 mph 8.0 mph 86 % 0.00 in
23:09 83.7 °F 79.0 °F 29.96 in SE 3.0 mph 8.0 mph 86 % 0.00 in
23:14 83.7 °F 79.3 °F 29.96 in South 6.0 mph 8.0 mph 87 % 0.00 in
23:19 83.5 °F 78.8 °F 29.96 in SSW 5.0 mph 10.0 mph 86 % 0.00 in
23:24 83.5 °F 79.2 °F 29.96 in SE 2.0 mph 11.0 mph 87 % 0.00 in
23:29 83.5 °F 79.2 °F 29.97 in SSE 5.0 mph 11.0 mph 87 % 0.00 in
23:34 83.5 °F 79.2 °F 29.97 in SSE 2.0 mph 11.0 mph 87 % 0.00 in
23:39 83.3 °F 79.0 °F 29.98 in SSE 4.0 mph 8.0 mph 87 % 0.00 in
23:44 83.5 °F 79.2 °F 29.97 in South 6.0 mph 11.0 mph 87 % 0.00 in
23:49 83.5 °F 79.2 °F 29.98 in SSE 5.0 mph 11.0 mph 87 % 0.00 in
23:54 83.5 °F 79.2 °F 29.97 in SE 2.0 mph 11.0 mph 87 % 0.00 in
23:59 83.5 °F 79.2 °F 29.98 in South 2.0 mph 11.0 mph 87 % 0.00 in
Spring, Texas: Villages of Bridgestone
Compliments of Weather Underground - 2.75 mb

Script developed by  Jim McMurry - jmcmurry@mwt.net Adapted for the template by  Wim van der Kuil - Leuven-Template.eu

You find our weather info also at:

UK Metoffice

WeatherCloud

Weather Underground

Mid-South Weather Network

AWEKAS

Citizen Weather Observer Program (CWOP)

HAMweather, WeatherForYou, PWS Weather

Equipment we use:

Weather-station
Davis Vantage Vue

Weather-program
Meteohub

Weather-server
Debian 7.9 x86 (Guest)

Provider
DreamHost

Davis Vantage Vue

Meteohub

Debian 7.9 x86 (Guest)

DreamHost